Potsdam, NY

44° 42' 44"N, 74° 57' 12"W, Elevation 460 ft.
Eastern Time

Hourly observations for the last 72 hours

Date Time Temperature (°F) Humi-
dity

(%)
Wind
(mph)
Pressure Rain (in) Sun
(W/m2)
ET
(in)
Air Dew 6 Hour 1 Hr 3 Hr 6 Hr Day
Alt
(in)
Sea
Level

(mb)
Max Min
30 10:00 38.9 31.3 74 NE 0 G 4 30.37 1028.5 0.00 116 0.008
30 09:00 38.7 30.8 73 ENE 4 G 15 30.32 1026.7 0.00 142 0.006
30 08:00 37.7 30.8 37.7 31.3 76 ENE 2 G 9 30.31 1026.4 0.00 109 0.004
30 07:00 35.5 29.9 80 E 1 G 4 30.32 1026.8 0.00 60 0.003
30 06:00 31.5 27.8 86 NE 1 G 3 30.32 1026.6 0.00 9 0.002
30 05:00 32.5 27.6 82 NNE 0 G 3 30.32 1026.7 0.00 0 0.002
30 04:00 33.0 27.5 80 Calm 30.31 1026.3 0.00 0 0.002
30 03:00 33.9 27.5 77 NNE 0 G 1 30.29 1025.8 0.00 0 0.002
30 02:00 34.3 26.9 54.1 34.3 74 NNE 0 G 1 30.29 1025.8 0.00 0 0.002
30 01:00 36.4 27.2 69 Calm 30.30 1026.2 0.00 0 0.001
30 00:00 38.4 27.7 65 NNE 0 G 1 30.27 1025.1 0.00 0 0.000
29 23:00 41.5 28.7 60 N 2 G 9 30.24 1024.2 0.00 0 0.139
29 22:00 44.9 30.2 56 N 5 G 15 30.23 1023.7 0.00 0 0.138
29 21:00 48.7 32.8 54 NNW 2 G 14 30.18 1022.1 0.00 0 0.136
29 20:00 54.1 36.4 68.5 54.1 51 NNW 6 G 14 30.12 1019.9 0.00 0 0.134
29 19:00 58.9 38.7 47 NW 3 G 15 30.08 1018.6 0.00 79 0.131
29 18:00 60.0 40.8 49 WNW 3 G 16 30.04 1017.4 0.00 130 0.127
29 17:00 65.0 44.3 47 WNW 9 G 16 30.00 1015.8 0.00 107 0.122
29 16:00 68.0 48.1 49 W 8 G 17 29.95 1014.4 0.00 626 0.110
29 15:00 67.4 50.2 54 WNW 8 G 22 29.94 1014.1 0.00 666 0.093
29 14:00 66.9 52.6 66.9 58.7 60 W 3 G 15 29.92 1013.1 0.00 918 0.075
29 13:00 65.0 51.2 61 W 4 G 17 29.93 1013.5 0.00 759 0.058
29 12:00 63.8 49.2 59 W 4 G 16 29.94 1013.8 0.00 244 0.045
29 11:00 63.2 49.1 60 WSW 5 G 13 29.93 1013.6 0.00 357 0.032
29 10:00 63.4 49.7 61 WNW 3 G 9 29.95 1014.2 0.00 336 0.023
29 09:00 61.0 48.7 64 SW 5 G 12 29.96 1014.6 0.00 105 0.015
29 08:00 58.8 48.3 59.2 55.7 68 WNW 2 G 15 29.95 1014.3 0.00 56 0.012
29 07:00 57.4 47.7 70 WSW 1 G 11 29.93 1013.6 0.00 39 0.010
29 06:00 56.6 45.8 67 WSW 1 G 9 29.92 1013.4 0.00 7 0.009
29 05:00 56.3 45.9 68 SW 1 G 9 29.91 1012.9 0.00 0 0.008
29 04:00 57.5 46.2 66 W 2 G 9 29.92 1013.2 0.00 0 0.007
29 03:00 58.9 45.9 62 SW 1 G 6 29.92 1013.1 0.00 0 0.006
29 02:00 59.2 44.9 62.3 59.0 59 WSW 1 G 7 29.93 1013.6 0.00 0 0.004
29 01:00 59.4 45.5 60 S 2 G 10 29.94 1013.9 0.00 0 0.002
29 00:00 59.5 45.6 60 SW 5 G 14 29.94 1014.0 0.07 0 0.000
28 23:00 59.5 45.6 60 SW 3 G 9 29.94 1014.0 0.07 0 0.159
28 22:00 59.5 46.5 62 SSW 2 G 12 29.95 1014.3 0.07 0 0.157
28 21:00 60.8 46.4 59 WSW 3 G 10 29.96 1014.7 0.07 0 0.155
28 20:00 62.3 46.4 67.9 62.3 56 W 5 G 13 29.95 1014.4 0.07 0 0.154
28 19:00 64.5 44.9 49 W 3 G 13 29.95 1014.4 0.07 58 0.152
28 18:00 66.0 43.5 44 W 5 G 20 29.95 1014.3 0.07 336 0.144
28 17:00 67.2 47.4 49 W 6 G 22 29.95 1014.4 0.07 512 0.132
28 16:00 67.7 48.9 51 W 5 G 15 29.94 1014.0 0.07 652 0.116
28 15:00 66.1 49.5 55 WNW 5 G 14 29.95 1014.4 0.07 798 0.097
28 14:00 65.3 51.1 65.3 55.3 60 SSW 8 G 12 29.94 1013.9 0.07 882 0.079
28 13:00 64.3 50.6 61 SW 7 G 15 29.96 1014.5 0.07 949 0.060
28 12:00 62.7 50.4 64 W 6 G 12 29.97 1014.8 0.07 738 0.041
28 11:00 61.9 50.8 67 W 2 G 17 29.97 1014.8 0.07 292 0.026
28 10:00 58.0 51.2 78 W 3 G 10 29.96 1014.6 0.07 179 0.016
28 09:00 57.0 52.2 84 W 5 G 11 29.93 1013.7 0.07 206 0.011
28 08:00 55.4 51.6 64.8 55.4 87 WSW 4 G 15 29.92 1013.1 0.07 0.07 95 0.007
28 07:00 55.7 52.2 88 SW 2 G 10 29.88 1012.0 0.07 21 0.005
28 06:00 58.1 54.6 88 SW 6 G 15 29.83 1010.0 0.07 5 0.004
28 05:00 60.2 57.6 91 WSW 3 G 14 29.79 1008.7 0.07 0.07 0 0.004
28 04:00 60.8 59.4 95 S 2 G 8 29.77 1008.2 0.07 0 0.004
28 03:00 61.2 59.5 94 SSE 3 G 9 29.74 1007.0 0.07 0.07 0 0.004
28 02:00 64.8 59.9 78.4 64.8 84 WNW 4 G 12 29.75 1007.3 0.00 0 0.004
28 01:00 71.2 61.7 72 WSW 8 G 16 29.70 1006.0 0.00 0 0.002
28 00:00 70.5 60.7 71 S 7 G 13 29.66 1004.5 0.00 0 0.000
27 23:00 71.7 60.6 68 S 4 G 12 29.66 1004.5 0.00 0 0.177
27 22:00 73.3 60.8 65 S 7 G 11 29.65 1004.1 0.00 0 0.175
27 21:00 73.7 60.3 63 SE 5 G 10 29.60 1002.4 0.00 0 0.172
27 20:00 78.4 58.8 84.9 78.4 51 SSE 5 G 15 29.60 1002.4 0.00 0 0.169
27 19:00 81.8 62.5 52 SSE 4 G 15 29.60 1002.3 0.00 47 0.165
27 18:00 84.7 66.2 54 N 2 G 8 29.61 1002.7 0.00 308 0.156
27 17:00 84.1 66.2 55 NNE 2 G 16 29.63 1003.4 0.00 315 0.144
27 16:00 83.0 67.2 59 ENE 5 G 11 29.66 1004.3 0.00 638 0.128
27 15:00 81.7 64.5 56 NNE 5 G 10 29.69 1005.6 0.00 752 0.109
27 14:00 80.2 64.1 80.2 54.0 58 E 2 G 8 29.72 1006.6 0.00 824 0.088
27 13:00 78.7 63.2 59 ENE 3 G 9 29.74 1007.1 0.00 842 0.066
27 12:00 76.5 63.9 65 NE 1 G 8 29.76 1007.9 0.00 819 0.045
27 11:00 71.4 63.4 76 NNE 2 G 7 29.77 1008.3 0.00 729 0.026

Data generated by WxSolution Version 1.9.0.6, Build 2017.01.14.